Time;durP1;ratioP1;P1;durP2;ratioP2;P2;SDS_P1;SDS_P2;PMS_P1;PMS_P2;Temp;Humidity;BMP_temperature;BMP_pressure;BME280_temperature;BME280_humidity;BME280_pressure;Samples;Min_cycle;Max_cycle;Signal;HPM_P1;HPM_P2
2024/03/16 00:02:50;;;;;;;92.90;50.20;;;;;;;4.62;100.00;98823.95;269397;1270;25338;-93
2024/03/16 00:08:52;;;;;;;92.30;50.40;;;;;;;4.59;100.00;98822.21;271522;1270;22412;-92
2024/03/16 00:14:55;;;;;;;100.50;52.20;;;;;;;4.56;100.00;98816.02;272031;1272;23597;-93
2024/03/16 00:20:59;;;;;;;95.80;52.20;;;;;;;4.53;100.00;98813.27;272324;1271;23203;-93
2024/03/16 00:27:02;;;;;;;103.50;51.90;;;;;;;4.49;100.00;98813.67;272354;1270;23204;-93
2024/03/16 00:33:04;;;;;;;100.90;52.30;;;;;;;4.42;100.00;98811.21;272254;1271;23275;-93
2024/03/16 00:39:15;;;;;;;98.70;52.70;;;;;;;4.33;100.00;98807.43;272410;1271;22326;-93
2024/03/16 00:45:17;;;;;;;111.70;57.60;;;;;;;4.29;100.00;98808.61;271509;1270;23063;-93
2024/03/16 00:51:20;;;;;;;107.00;56.00;;;;;;;4.22;100.00;98799.41;271927;1270;22435;-92
2024/03/16 00:57:23;;;;;;;93.40;49.60;;;;;;;4.20;100.00;98795.08;271875;1270;22474;-93
2024/03/16 01:03:26;;;;;;;92.80;50.00;;;;;;;4.19;100.00;98787.09;272262;1271;22344;-92
2024/03/16 01:09:31;;;;;;;89.70;46.80;;;;;;;4.17;100.00;98783.36;272091;1270;22531;-93
2024/03/16 01:15:33;;;;;;;94.10;49.60;;;;;;;4.09;100.00;98778.92;271779;1270;22265;-93
2024/03/16 01:21:37;;;;;;;89.10;49.80;;;;;;;4.02;100.00;98772.89;270963;1268;23230;-93
2024/03/16 01:27:39;;;;;;;83.60;46.20;;;;;;;4.00;100.00;98764.01;271944;1271;22494;-93
2024/03/16 01:33:41;;;;;;;93.80;49.70;;;;;;;3.98;100.00;98761.70;270963;1270;22502;-93
2024/03/16 01:39:45;;;;;;;79.90;44.80;;;;;;;3.93;100.00;98758.44;270659;1271;25339;-93
2024/03/16 01:45:47;;;;;;;86.60;47.50;;;;;;;3.88;100.00;98757.11;269569;1270;23637;-93
2024/03/16 01:51:52;;;;;;;85.90;44.10;;;;;;;3.86;100.00;98757.19;269909;1272;22568;-93
2024/03/16 01:57:54;;;;;;;82.20;44.60;;;;;;;3.83;100.00;98759.10;270194;1272;23785;-93
2024/03/16 02:03:59;;;;;;;88.30;46.20;;;;;;;3.80;100.00;98757.99;269844;1271;22567;-92
2024/03/16 02:10:05;;;;;;;89.00;45.80;;;;;;;3.76;100.00;98762.34;269330;1271;25510;-91
2024/03/16 02:16:07;;;;;;;83.70;44.40;;;;;;;3.69;100.00;98765.21;271781;1270;22415;-93
2024/03/16 02:22:08;;;;;;;88.80;44.60;;;;;;;3.64;100.00;98767.66;271896;1270;22530;-92
2024/03/16 02:28:11;;;;;;;76.30;41.80;;;;;;;3.58;100.00;98766.77;271569;1272;23693;-92
2024/03/16 02:34:35;;;;;;;69.00;39.20;;;;;;;3.53;100.00;98767.83;272277;1251;84514;-91
2024/03/16 02:40:42;;;;;;;73.80;37.30;;;;;;;3.48;100.00;98770.27;271343;1272;23102;-92
2024/03/16 02:47:04;;;;;;;63.30;35.70;;;;;;;3.48;100.00;98770.57;271237;1270;22491;-92
2024/03/16 02:53:08;;;;;;;59.20;33.80;;;;;;;3.52;100.00;98770.73;271982;1272;22426;-92
2024/03/16 02:59:12;;;;;;;57.30;31.60;;;;;;;3.62;100.00;98773.99;271591;1271;23849;-91
2024/03/16 03:05:20;;;;;;;56.60;32.30;;;;;;;3.71;100.00;98773.61;271780;1272;23093;-92
2024/03/16 03:11:31;;;;;;;54.90;30.50;;;;;;;3.78;100.00;98775.19;271980;1271;22395;-92
2024/03/16 03:17:37;;;;;;;57.00;30.50;;;;;;;3.83;100.00;98775.35;272216;1260;22515;-91
2024/03/16 03:23:42;;;;;;;56.70;31.40;;;;;;;3.85;100.00;98778.83;272044;1271;22410;-92
2024/03/16 03:29:59;;;;;;;51.50;29.70;;;;;;;3.81;100.00;98778.69;272035;1272;22415;-92
2024/03/16 03:36:03;;;;;;;48.00;28.80;;;;;;;3.79;100.00;98777.23;272025;1272;22424;-91
2024/03/16 03:42:29;;;;;;;53.80;30.40;;;;;;;3.76;100.00;98769.79;271927;1268;22856;-92
2024/03/16 03:48:49;;;;;;;54.90;32.70;;;;;;;3.76;100.00;98765.98;271545;1272;22545;-92
2024/03/16 03:55:06;;;;;;;55.00;31.00;;;;;;;3.71;100.00;98765.66;271677;1271;22407;-91
2024/03/16 04:01:18;;;;;;;;;;;;;;;3.67;100.00;98766.36;271427;1271;22493;-91
2024/03/16 04:07:27;;;;;;;56.80;31.50;;;;;;;3.63;100.00;98767.31;271620;1270;22549;-91
2024/03/16 04:13:33;;;;;;;59.30;32.50;;;;;;;3.58;100.00;98767.05;271825;1272;22417;-92
2024/03/16 04:19:55;;;;;;;54.30;31.30;;;;;;;3.57;100.00;98767.96;267304;1270;6108208;-92
2024/03/16 04:26:01;;;;;;;55.70;31.20;;;;;;;3.62;100.00;98773.54;271878;1272;22379;-92
2024/03/16 04:32:12;;;;;;;51.00;29.20;;;;;;;3.65;100.00;98773.41;271942;1268;22430;-92
2024/03/16 04:38:17;;;;;;;51.20;27.30;;;;;;;3.66;100.00;98774.08;272004;1272;22454;-92
2024/03/16 04:44:20;;;;;;;49.50;28.10;;;;;;;3.74;100.00;98776.75;272008;1271;22411;-91
2024/03/16 04:50:26;;;;;;;56.50;30.30;;;;;;;3.87;100.00;98782.53;271604;1268;22489;-91
2024/03/16 04:56:34;;;;;;;57.70;32.40;;;;;;;3.99;100.00;98781.60;271611;1272;22208;-92
2024/03/16 05:02:41;;;;;;;66.30;35.10;;;;;;;4.09;100.00;98784.44;271628;1272;23697;-91
2024/03/16 05:08:45;;;;;;;61.80;33.50;;;;;;;4.19;100.00;98790.56;271511;1272;23367;-91
2024/03/16 05:14:49;;;;;;;58.00;33.00;;;;;;;4.23;100.00;98792.32;271675;1270;22429;-91
2024/03/16 05:20:57;;;;;;;60.10;34.00;;;;;;;4.30;100.00;98791.95;272023;1271;23233;-92
2024/03/16 05:27:16;;;;;;;57.80;30.90;;;;;;;4.41;100.00;98799.11;272124;1270;23496;-90
2024/03/16 05:33:28;;;;;;;54.10;32.30;;;;;;;4.53;100.00;98803.03;272055;1268;22357;-91
2024/03/16 05:39:51;;;;;;;66.30;36.20;;;;;;;4.63;100.00;98802.42;272008;1271;22539;-91
2024/03/16 05:45:59;;;;;;;62.00;35.70;;;;;;;4.76;100.00;98803.38;271901;1270;23449;-91
2024/03/16 05:52:02;;;;;;;54.80;31.70;;;;;;;4.93;100.00;98804.02;271773;1271;22489;-91
2024/03/16 05:58:28;;;;;;;61.30;33.10;;;;;;;5.06;100.00;98802.33;271576;1270;22540;-90
2024/03/16 06:04:51;;;;;;;61.40;34.40;;;;;;;5.21;100.00;98809.39;271679;1270;22449;-91
2024/03/16 06:10:59;;;;;;;67.30;38.00;;;;;;;5.38;100.00;98813.05;271690;1269;23566;-91
2024/03/16 06:17:23;;;;;;;60.10;36.60;;;;;;;5.54;100.00;98819.92;271537;1269;23994;-92
2024/03/16 06:23:48;;;;;;;63.60;33.30;;;;;;;5.72;100.00;98818.13;272071;1270;22543;-92
2024/03/16 06:30:12;;;;;;;60.60;35.60;;;;;;;5.97;100.00;98817.65;272098;1270;22405;-91
2024/03/16 06:36:26;;;;;;;67.00;34.20;;;;;;;6.21;100.00;98815.88;272105;1270;22410;-92
